Time;durP1;ratioP1;P1;durP2;ratioP2;P2;SDS_P1;SDS_P2;PMS_P1;PMS_P2;Temp;Humidity;BMP_temperature;BMP_pressure;BME280_temperature;BME280_humidity;BME280_pressure;Samples;Min_cycle;Max_cycle;Signal;HPM_P1;HPM_P2
2023/01/23 00:02:12;;;;;;;10.03;8.57;;;;;;;;;;5013410;28;20200;-59
2023/01/23 00:04:41;;;;;;;9.70;8.70;;;;;;;;;;5011902;28;20266;-56
2023/01/23 00:07:08;;;;;;;9.40;8.20;;;;;;;;;;5011491;28;20220;-58
2023/01/23 00:09:35;;;;;;;11.53;9.40;;;;;;;;;;5012130;28;20231;-58
2023/01/23 00:12:02;;;;;;;13.73;10.77;;;;;;;;;;5011685;28;20204;-55
2023/01/23 00:14:29;;;;;;;12.20;10.20;;;;;;;;;;5013147;28;20200;-58
2023/01/23 00:16:56;;;;;;;12.17;9.73;;;;;;;;;;5011167;28;20307;-58
2023/01/23 00:19:23;;;;;;;11.30;9.73;;;;;;;;;;5011572;28;20228;-58
2023/01/23 00:21:52;;;;;;;10.27;9.10;;;;;;;;;;5011744;28;20207;-58
2023/01/23 00:24:19;;;;;;;13.53;10.17;;;;;;;;;;5010408;28;20330;-57
2023/01/23 00:26:46;;;;;;;11.03;8.73;;;;;;;;;;5012628;28;20211;-56
2023/01/23 00:29:14;;;;;;;9.00;7.90;;;;;;;;;;5016817;28;20188;-58
2023/01/23 00:31:41;;;;;;;10.57;8.63;;;;;;;;;;5008723;28;20211;-57
2023/01/23 00:34:10;;;;;;;9.60;7.93;;;;;;;;;;5011001;28;20266;-58
2023/01/23 00:36:46;;;;;;;9.67;8.50;;;;;;;;;;5014220;28;20291;-58
2023/01/23 00:39:16;;;;;;;8.90;8.00;;;;;;;;;;5006604;28;20221;-58
2023/01/23 00:41:43;;;;;;;8.97;8.07;;;;;;;;;;5009985;28;20201;-57
2023/01/23 00:44:10;;;;;;;8.97;8.07;;;;;;;;;;5013177;28;20205;-56
2023/01/23 00:46:38;;;;;;;8.47;7.57;;;;;;;;;;5010756;28;20205;-56
2023/01/23 00:49:05;;;;;;;8.37;7.57;;;;;;;;;;5013835;28;20201;-57
2023/01/23 00:51:32;;;;;;;8.53;7.63;;;;;;;;;;5013679;28;20200;-57
2023/01/23 00:53:59;;;;;;;9.13;7.97;;;;;;;;;;5015648;28;20196;-57
2023/01/23 00:56:28;;;;;;;8.20;7.17;;;;;;;;;;5014722;28;20292;-59
2023/01/23 00:58:55;;;;;;;8.03;7.23;;;;;;;;;;5013422;28;20275;-58
2023/01/23 01:01:22;;;;;;;8.30;7.50;;;;;;;;;;5010664;28;20207;-58
2023/01/23 01:03:49;;;;;;;7.83;7.03;;;;;;;;;;5009807;28;20499;-57
2023/01/23 01:06:16;;;;;;;8.27;7.40;;;;;;;;;;5016063;28;20270;-58
2023/01/23 01:08:44;;;;;;;9.20;7.77;;;;;;;;;;5012142;28;20197;-59
2023/01/23 01:11:11;;;;;;;8.20;7.33;;;;;;;;;;5015152;28;20200;-59
2023/01/23 01:13:39;;;;;;;7.67;6.77;;;;;;;;;;5011028;28;20211;-59
2023/01/23 01:16:07;;;;;;;8.50;7.67;;;;;;;;;;5008745;28;20199;-58
2023/01/23 01:18:34;;;;;;;8.07;7.27;;;;;;;;;;5008454;28;20238;-58
2023/01/23 01:21:01;;;;;;;8.33;7.53;;;;;;;;;;5009318;28;20201;-58
2023/01/23 01:23:29;;;;;;;7.73;6.97;;;;;;;;;;5012312;28;20211;-58
2023/01/23 01:25:59;;;;;;;7.90;7.10;;;;;;;;;;5010085;28;20219;-56
2023/01/23 01:28:29;;;;;;;8.67;7.77;;;;;;;;;;5017634;28;20383;-59
2023/01/23 01:30:57;;;;;;;8.00;7.17;;;;;;;;;;5012039;28;20208;-57
2023/01/23 01:33:24;;;;;;;8.33;7.43;;;;;;;;;;5007725;28;20456;-58
2023/01/23 01:35:52;;;;;;;8.07;7.27;;;;;;;;;;5009624;28;20197;-58
2023/01/23 01:38:19;;;;;;;7.93;7.13;;;;;;;;;;5015617;28;20314;-59
2023/01/23 01:40:46;;;;;;;8.03;7.23;;;;;;;;;;5003935;28;20207;-56
2023/01/23 01:43:19;;;;;;;8.27;7.20;;;;;;;;;;5009353;28;20204;-58
2023/01/23 01:46:10;;;;;;;7.60;6.90;;;;;;;;;;5008957;28;20200;-57
2023/01/23 01:48:45;;;;;;;8.47;7.57;;;;;;;;;;4996275;28;20287;-58
2023/01/23 01:51:16;;;;;;;8.40;7.50;;;;;;;;;;5007084;28;20196;-57
2023/01/23 01:53:45;;;;;;;8.77;7.70;;;;;;;;;;5008335;28;20204;-57
2023/01/23 01:56:14;;;;;;;8.33;7.50;;;;;;;;;;5013393;28;20218;-58
2023/01/23 01:58:42;;;;;;;7.47;6.70;;;;;;;;;;5011304;28;20247;-58
2023/01/23 02:01:09;;;;;;;8.17;7.37;;;;;;;;;;5016067;28;20207;-57
2023/01/23 02:03:36;;;;;;;7.87;7.07;;;;;;;;;;5009798;28;20206;-57
2023/01/23 02:06:05;;;;;;;7.80;7.00;;;;;;;;;;5009339;28;20232;-59
2023/01/23 02:08:36;;;;;;;8.30;7.50;;;;;;;;;;5008884;28;20205;-59
2023/01/23 02:11:04;;;;;;;7.83;7.03;;;;;;;;;;5008699;28;20197;-58
2023/01/23 02:13:34;;;;;;;7.70;6.93;;;;;;;;;;5006988;28;20291;-58
2023/01/23 02:16:03;;;;;;;7.70;7.00;;;;;;;;;;5011401;28;20232;-58
2023/01/23 02:18:31;;;;;;;7.23;6.53;;;;;;;;;;5008053;28;20301;-57
2023/01/23 02:20:59;;;;;;;8.47;7.53;;;;;;;;;;5010252;28;20212;-58
2023/01/23 02:23:30;;;;;;;7.90;7.10;;;;;;;;;;5008170;28;20208;-59
2023/01/23 02:26:00;;;;;;;7.33;6.60;;;;;;;;;;5012055;28;20204;-56
2023/01/23 02:28:37;;;;;;;7.27;6.57;;;;;;;;;;5006842;28;20216;-58
2023/01/23 02:31:04;;;;;;;7.23;6.53;;;;;;;;;;5002707;28;20199;-58
2023/01/23 02:33:45;;;;;;;7.80;7.00;;;;;;;;;;5009053;28;20287;-58
2023/01/23 02:36:12;;;;;;;7.30;6.60;;;;;;;;;;5009863;28;20372;-58
2023/01/23 02:38:44;;;;;;;7.70;6.80;;;;;;;;;;5009211;28;20212;-58
2023/01/23 02:41:14;;;;;;;6.77;6.17;;;;;;;;;;5013209;28;20247;-58
2023/01/23 02:43:41;;;;;;;7.03;6.33;;;;;;;;;;5010582;28;20211;-58
2023/01/23 02:46:09;;;;;;;7.33;6.57;;;;;;;;;;5012738;28;20202;-59
2023/01/23 02:48:38;;;;;;;7.17;6.47;;;;;;;;;;5008375;28;20201;-59
2023/01/23 02:51:06;;;;;;;6.90;6.30;;;;;;;;;;5009619;28;20210;-56
2023/01/23 02:53:33;;;;;;;6.83;6.13;;;;;;;;;;5013047;28;20215;-59
2023/01/23 02:56:00;;;;;;;7.27;6.57;;;;;;;;;;5005983;28;20292;-57
2023/01/23 03:01:13;;;;;;;6.67;6.03;;;;;;;;;;5008598;28;20218;-58
2023/01/23 03:03:42;;;;;;;7.47;6.77;;;;;;;;;;5010098;28;20192;-59
2023/01/23 03:06:09;;;;;;;6.97;6.20;;;;;;;;;;5013329;28;20200;-58
2023/01/23 03:08:48;;;;;;;6.97;6.17;;;;;;;;;;5014457;28;20235;-57
2023/01/23 03:11:16;;;;;;;7.10;6.40;;;;;;;;;;5014026;28;20200;-59
2023/01/23 03:13:44;;;;;;;6.50;5.90;;;;;;;;;;5011531;28;20196;-57
2023/01/23 03:16:11;;;;;;;7.43;6.70;;;;;;;;;;5011290;28;20234;-58
2023/01/23 03:18:38;;;;;;;7.27;6.20;;;;;;;;;;5012456;28;20200;-57
2023/01/23 03:21:06;;;;;;;6.90;6.20;;;;;;;;;;5013140;28;20207;-58
2023/01/23 03:23:34;;;;;;;7.20;6.43;;;;;;;;;;5017269;28;20199;-58
2023/01/23 03:26:01;;;;;;;7.50;6.70;;;;;;;;;;5014803;28;20196;-58
2023/01/23 03:31:15;;;;;;;6.53;5.93;;;;;;;;;;5014642;28;20231;-58
2023/01/23 03:33:43;;;;;;;6.40;5.80;;;;;;;;;;5008025;28;20227;-56
2023/01/23 03:36:10;;;;;;;7.17;6.47;;;;;;;;;;5012378;28;20200;-59
2023/01/23 03:38:37;;;;;;;6.90;6.20;;;;;;;;;;5015763;28;20199;-59
2023/01/23 03:43:49;;;;;;;6.70;6.03;;;;;;;;;;5010366;28;20471;-58
2023/01/23 03:46:18;;;;;;;7.37;6.33;;;;;;;;;;5012115;28;20200;-58
2023/01/23 03:48:45;;;;;;;6.30;5.70;;;;;;;;;;5017252;28;20203;-57
2023/01/23 03:51:12;;;;;;;6.77;6.07;;;;;;;;;;5016525;28;20200;-58
2023/01/23 03:53:39;;;;;;;6.13;5.53;;;;;;;;;;5010800;28;20207;-57
2023/01/23 03:56:07;;;;;;;7.00;6.30;;;;;;;;;;5016384;28;20392;-58
2023/01/23 03:58:34;;;;;;;7.27;6.13;;;;;;;;;;5015695;28;20321;-59
2023/01/23 04:01:03;;;;;;;6.73;6.00;;;;;;;;;;5011981;28;20714;-58
2023/01/23 04:03:31;;;;;;;6.43;5.83;;;;;;;;;;5014012;28;20219;-58
2023/01/23 04:06:00;;;;;;;6.20;5.60;;;;;;;;;;5009683;28;20416;-56
2023/01/23 04:08:28;;;;;;;6.63;5.93;;;;;;;;;;5015170;28;20196;-57
2023/01/23 04:11:01;;;;;;;6.50;5.90;;;;;;;;;;5012969;28;20235;-59
2023/01/23 04:13:28;;;;;;;6.37;5.77;;;;;;;;;;5013545;28;20559;-58
2023/01/23 04:15:55;;;;;;;6.47;5.87;;;;;;;;;;5013843;28;20208;-57
2023/01/23 04:18:22;;;;;;;7.33;6.37;;;;;;;;;;5013108;28;20200;-54
2023/01/23 04:20:51;;;;;;;5.83;5.33;;;;;;;;;;5013488;28;20444;-58
2023/01/23 04:23:18;;;;;;;6.23;5.63;;;;;;;;;;5009271;28;20208;-56
2023/01/23 04:25:45;;;;;;;6.63;5.83;;;;;;;;;;5010345;28;20189;-55
2023/01/23 04:28:13;;;;;;;7.07;6.20;;;;;;;;;;5009969;28;20191;-57
2023/01/23 04:30:40;;;;;;;6.27;5.67;;;;;;;;;;5012528;28;20200;-59
2023/01/23 04:33:07;;;;;;;5.93;5.33;;;;;;;;;;5013051;28;20204;-56
2023/01/23 04:35:34;;;;;;;6.50;5.90;;;;;;;;;;5015868;28;20207;-56
2023/01/23 04:38:03;;;;;;;6.67;6.07;;;;;;;;;;5009935;28;20192;-58
2023/01/23 04:40:30;;;;;;;6.80;6.10;;;;;;;;;;5009845;28;20588;-56
2023/01/23 04:42:57;;;;;;;6.20;5.60;;;;;;;;;;5010678;28;20213;-59
2023/01/23 04:45:24;;;;;;;7.93;5.77;;;;;;;;;;5013019;28;20208;-55
2023/01/23 04:47:51;;;;;;;6.70;6.00;;;;;;;;;;5011594;28;20211;-57
2023/01/23 04:50:19;;;;;;;6.33;5.73;;;;;;;;;;5013720;28;20208;-58
2023/01/23 04:52:46;;;;;;;5.80;5.20;;;;;;;;;;5015338;28;20211;-57
2023/01/23 04:55:14;;;;;;;6.90;5.50;;;;;;;;;;5014702;28;20211;-57
2023/01/23 04:57:41;;;;;;;6.10;5.50;;;;;;;;;;5010552;28;20215;-57
2023/01/23 05:00:09;;;;;;;5.93;5.33;;;;;;;;;;5015251;28;20216;-58
2023/01/23 05:02:36;;;;;;;6.30;5.70;;;;;;;;;;5014566;28;20204;-57
2023/01/23 05:05:05;;;;;;;6.53;5.57;;;;;;;;;;5015848;28;20208;-56
2023/01/23 05:07:32;;;;;;;5.63;5.13;;;;;;;;;;5016162;28;20419;-57
2023/01/23 05:09:59;;;;;;;5.63;5.13;;;;;;;;;;5015309;28;20223;-56
2023/01/23 05:12:27;;;;;;;5.87;5.33;;;;;;;;;;5005915;28;20383;-58
2023/01/23 05:14:54;;;;;;;5.60;5.10;;;;;;;;;;5012106;28;20204;-57
2023/01/23 05:17:22;;;;;;;6.37;5.77;;;;;;;;;;5014532;28;20222;-59
2023/01/23 05:19:49;;;;;;;5.40;4.90;;;;;;;;;;5008167;28;20251;-59
2023/01/23 05:22:17;;;;;;;5.53;5.03;;;;;;;;;;5009883;28;20208;-57
2023/01/23 05:24:44;;;;;;;8.27;6.70;;;;;;;;;;5017716;28;20207;-58
2023/01/23 05:27:12;;;;;;;6.10;5.50;;;;;;;;;;5012449;28;20207;-56
2023/01/23 05:29:40;;;;;;;7.63;6.50;;;;;;;;;;5011358;28;20200;-53
2023/01/23 05:32:07;;;;;;;6.90;6.20;;;;;;;;;;5007722;28;20207;-55
2023/01/23 05:34:34;;;;;;;5.90;5.23;;;;;;;;;;5011397;28;20208;-53
2023/01/23 05:37:02;;;;;;;5.77;5.23;;;;;;;;;;5012112;28;20205;-59
2023/01/23 05:39:29;;;;;;;6.10;5.50;;;;;;;;;;5009374;28;20233;-53
2023/01/23 05:41:56;;;;;;;5.23;4.73;;;;;;;;;;5013851;28;20200;-58
2023/01/23 05:44:23;;;;;;;5.30;4.80;;;;;;;;;;5010265;28;20201;-55
2023/01/23 05:46:51;;;;;;;5.77;5.20;;;;;;;;;;5013379;28;20210;-58
2023/01/23 05:49:18;;;;;;;5.77;5.17;;;;;;;;;;5007690;28;21069;-58
2023/01/23 05:51:46;;;;;;;5.50;5.00;;;;;;;;;;5013628;28;20204;-57
2023/01/23 05:54:13;;;;;;;5.60;5.10;;;;;;;;;;5009772;28;20421;-55
2023/01/23 05:56:40;;;;;;;5.47;4.97;;;;;;;;;;5008686;28;20209;-57
2023/01/23 05:59:07;;;;;;;4.77;4.37;;;;;;;;;;5009834;28;20566;-55
2023/01/23 06:01:34;;;;;;;5.37;4.87;;;;;;;;;;5009724;28;20208;-58
2023/01/23 06:04:03;;;;;;;5.37;4.73;;;;;;;;;;5008942;28;20201;-58
2023/01/23 06:06:30;;;;;;;5.87;4.97;;;;;;;;;;5011535;28;20219;-59
2023/01/23 06:08:59;;;;;;;4.80;4.30;;;;;;;;;;5008446;28;20224;-58
2023/01/23 06:11:26;;;;;;;5.13;4.70;;;;;;;;;;5007585;28;20197;-59
2023/01/23 06:13:53;;;;;;;5.00;4.50;;;;;;;;;;5013784;28;20204;-58
2023/01/23 06:16:20;;;;;;;5.50;4.93;;;;;;;;;;5012011;28;20196;-58
2023/01/23 06:18:47;;;;;;;5.50;5.00;;;;;;;;;;5009952;28;20211;-58
2023/01/23 06:21:17;;;;;;;5.23;4.73;;;;;;;;;;5016086;28;20550;-58
2023/01/23 06:23:44;;;;;;;5.00;4.50;;;;;;;;;;5021315;28;20208;-57
2023/01/23 06:26:12;;;;;;;5.63;5.13;;;;;;;;;;5014391;28;20201;-56
2023/01/23 06:28:39;;;;;;;5.07;4.63;;;;;;;;;;5010097;28;20231;-57
2023/01/23 06:31:08;;;;;;;5.33;4.83;;;;;;;;;;5008698;28;20196;-58
2023/01/23 06:33:35;;;;;;;5.27;4.77;;;;;;;;;;5008729;28;20299;-56
2023/01/23 06:36:02;;;;;;;4.77;4.37;;;;;;;;;;5011812;28;20196;-58
2023/01/23 06:38:31;;;;;;;5.50;5.00;;;;;;;;;;5008392;28;20207;-56
2023/01/23 06:40:58;;;;;;;4.63;4.23;;;;;;;;;;5003958;28;20224;-58
2023/01/23 06:43:25;;;;;;;4.77;4.37;;;;;;;;;;5011331;28;20228;-56
2023/01/23 06:45:52;;;;;;;5.10;4.53;;;;;;;;;;5013616;28;20205;-56
2023/01/23 06:48:20;;;;;;;5.00;4.50;;;;;;;;;;5008437;28;20235;-54
2023/01/23 06:50:47;;;;;;;5.40;4.90;;;;;;;;;;5009567;28;20203;-58
2023/01/23 06:53:16;;;;;;;5.47;4.97;;;;;;;;;;5015803;28;20211;-56
2023/01/23 06:55:45;;;;;;;6.30;5.70;;;;;;;;;;5008867;28;20236;-56
2023/01/23 06:58:12;;;;;;;6.43;5.50;;;;;;;;;;5012402;28;20211;-58
2023/01/23 07:00:43;;;;;;;6.57;5.80;;;;;;;;;;5010917;28;20496;-53
2023/01/23 07:03:10;;;;;;;7.17;6.20;;;;;;;;;;5011875;28;20232;-55
2023/01/23 07:05:38;;;;;;;6.63;5.43;;;;;;;;;;5012217;28;20188;-58
2023/01/23 07:08:05;;;;;;;6.23;5.53;;;;;;;;;;5010779;28;20197;-56
2023/01/23 07:10:33;;;;;;;6.30;4.93;;;;;;;;;;5011481;28;20223;-58
2023/01/23 07:13:01;;;;;;;5.33;4.83;;;;;;;;;;5010787;28;20199;-58
2023/01/23 07:15:28;;;;;;;5.43;4.93;;;;;;;;;;5010612;28;20283;-56
2023/01/23 07:17:55;;;;;;;4.97;4.47;;;;;;;;;;5014599;28;20204;-58
2023/01/23 07:20:26;;;;;;;5.67;5.10;;;;;;;;;;5012566;28;20220;-57
2023/01/23 07:22:53;;;;;;;6.97;5.53;;;;;;;;;;5013369;28;20220;-57
2023/01/23 07:25:20;;;;;;;5.97;5.03;;;;;;;;;;5013886;28;20273;-57
2023/01/23 07:27:47;;;;;;;5.50;5.00;;;;;;;;;;5010903;28;20284;-58
2023/01/23 07:30:16;;;;;;;5.50;4.93;;;;;;;;;;5017106;28;20294;-58
2023/01/23 07:32:44;;;;;;;4.90;4.50;;;;;;;;;;5011859;28;20204;-58
2023/01/23 07:35:20;;;;;;;4.83;4.43;;;;;;;;;;5013609;28;20211;-55
2023/01/23 07:37:47;;;;;;;5.23;4.73;;;;;;;;;;5005863;28;20254;-57
2023/01/23 07:40:14;;;;;;;4.83;4.10;;;;;;;;;;5009660;28;20216;-56
2023/01/23 07:42:41;;;;;;;4.67;4.20;;;;;;;;;;5014994;28;20283;-58
2023/01/23 07:45:09;;;;;;;4.73;4.30;;;;;;;;;;5007648;28;20263;-53
2023/01/23 07:47:40;;;;;;;4.67;4.20;;;;;;;;;;5013211;28;20214;-58
2023/01/23 07:50:09;;;;;;;4.03;3.70;;;;;;;;;;5007717;28;20319;-57
2023/01/23 07:52:36;;;;;;;3.70;3.40;;;;;;;;;;5012021;28;20215;-57
2023/01/23 07:55:03;;;;;;;4.17;3.70;;;;;;;;;;5008964;28;20208;-56
2023/01/23 07:57:32;;;;;;;4.30;3.90;;;;;;;;;;5010584;28;20200;-55
2023/01/23 07:59:59;;;;;;;6.13;5.00;;;;;;;;;;5014469;28;20205;-58
2023/01/23 08:02:26;;;;;;;4.90;4.40;;;;;;;;;;5008209;28;20205;-58
2023/01/23 08:04:55;;;;;;;3.80;3.50;;;;;;;;;;5008602;28;20201;-59
2023/01/23 08:07:22;;;;;;;3.70;3.40;;;;;;;;;;5015769;28;20200;-59
2023/01/23 08:09:49;;;;;;;3.63;3.33;;;;;;;;;;5011745;28;20239;-58
2023/01/23 08:12:17;;;;;;;3.50;3.20;;;;;;;;;;5014289;28;20197;-58
2023/01/23 08:14:44;;;;;;;6.63;4.77;;;;;;;;;;5015951;28;20206;-57
2023/01/23 08:17:11;;;;;;;7.03;5.13;;;;;;;;;;5018456;28;20208;-58
2023/01/23 08:19:38;;;;;;;7.00;5.40;;;;;;;;;;5008953;28;20204;-57
2023/01/23 08:22:07;;;;;;;6.23;4.70;;;;;;;;;;5013717;28;20258;-58
2023/01/23 08:24:34;;;;;;;5.10;4.50;;;;;;;;;;5007891;28;20209;-58
2023/01/23 08:27:01;;;;;;;4.80;4.17;;;;;;;;;;5012707;28;20204;-57
2023/01/23 08:29:28;;;;;;;5.13;4.23;;;;;;;;;;5011887;28;20215;-59
2023/01/23 08:31:55;;;;;;;5.07;4.53;;;;;;;;;;5015974;28;20204;-55
2023/01/23 08:34:23;;;;;;;4.90;4.23;;;;;;;;;;5010321;28;20200;-58
2023/01/23 08:36:50;;;;;;;4.57;3.90;;;;;;;;;;5016139;28;20206;-57
2023/01/23 08:39:19;;;;;;;5.73;5.13;;;;;;;;;;5013364;28;20192;-58
2023/01/23 08:41:46;;;;;;;4.33;3.93;;;;;;;;;;5016091;28;20220;-58
2023/01/23 08:44:14;;;;;;;4.87;3.80;;;;;;;;;;5016739;28;20204;-59
2023/01/23 08:46:41;;;;;;;4.17;3.77;;;;;;;;;;5015643;28;20511;-56
2023/01/23 08:49:09;;;;;;;4.50;4.10;;;;;;;;;;5016684;28;20415;-58
2023/01/23 08:51:36;;;;;;;3.50;3.20;;;;;;;;;;5007460;28;20196;-57
2023/01/23 08:54:03;;;;;;;3.83;3.47;;;;;;;;;;5011996;28;20383;-56
2023/01/23 08:56:31;;;;;;;3.60;3.30;;;;;;;;;;5014856;28;20208;-57
2023/01/23 08:58:58;;;;;;;3.93;3.40;;;;;;;;;;5013793;28;20250;-56
2023/01/23 09:01:26;;;;;;;4.03;3.47;;;;;;;;;;5016074;28;20239;-56
2023/01/23 09:03:54;;;;;;;5.40;4.77;;;;;;;;;;5011161;28;20209;-56
2023/01/23 09:06:22;;;;;;;3.90;3.57;;;;;;;;;;5010220;28;20453;-55
2023/01/23 09:08:49;;;;;;;3.83;3.53;;;;;;;;;;5011295;28;20215;-57
2023/01/23 09:11:16;;;;;;;3.80;3.50;;;;;;;;;;5018760;28;20207;-58
2023/01/23 09:13:45;;;;;;;4.17;3.80;;;;;;;;;;5017711;28;20220;-54
2023/01/23 09:16:13;;;;;;;3.80;3.50;;;;;;;;;;5012158;28;20196;-53
2023/01/23 09:18:40;;;;;;;3.60;3.30;;;;;;;;;;5012429;28;20286;-55
2023/01/23 09:21:07;;;;;;;3.70;2.97;;;;;;;;;;5010297;28;20227;-58
2023/01/23 09:23:35;;;;;;;3.70;3.40;;;;;;;;;;5012337;28;20254;-57
2023/01/23 09:26:06;;;;;;;3.63;3.33;;;;;;;;;;5010586;28;20218;-54
2023/01/23 09:28:33;;;;;;;3.30;3.00;;;;;;;;;;5017972;28;20291;-55
2023/01/23 09:31:06;;;;;;;3.70;3.40;;;;;;;;;;5017608;28;20216;-57
2023/01/23 09:33:33;;;;;;;3.60;3.30;;;;;;;;;;5009798;28;20216;-58
2023/01/23 09:36:00;;;;;;;3.40;3.10;;;;;;;;;;5007993;28;20212;-56
2023/01/23 09:38:27;;;;;;;3.90;3.57;;;;;;;;;;5011440;28;20209;-57
2023/01/23 09:40:55;;;;;;;3.53;3.23;;;;;;;;;;5017343;28;20238;-54
2023/01/23 09:43:24;;;;;;;4.17;3.77;;;;;;;;;;5013105;28;20203;-57
2023/01/23 09:45:57;;;;;;;4.20;3.80;;;;;;;;;;5006992;28;20214;-53
2023/01/23 09:48:29;;;;;;;4.33;3.93;;;;;;;;;;5009414;28;20197;-57
2023/01/23 09:51:01;;;;;;;4.00;3.70;;;;;;;;;;5009904;28;20200;-56
2023/01/23 09:53:32;;;;;;;5.10;3.87;;;;;;;;;;5009269;28;20208;-56
2023/01/23 09:56:00;;;;;;;4.57;4.17;;;;;;;;;;5009539;28;20200;-55
2023/01/23 09:58:31;;;;;;;4.30;3.90;;;;;;;;;;5012790;28;20279;-57
2023/01/23 10:00:58;;;;;;;4.23;3.83;;;;;;;;;;5009813;28;20228;-59
2023/01/23 10:03:30;;;;;;;4.00;3.63;;;;;;;;;;5004500;28;20212;-58
2023/01/23 10:06:14;;;;;;;4.70;4.30;;;;;;;;;;5003803;28;20212;-55
2023/01/23 10:08:44;;;;;;;4.40;4.00;;;;;;;;;;5005979;28;20344;-59
2023/01/23 10:11:16;;;;;;;11.57;7.57;;;;;;;;;;5007946;28;20203;-57
2023/01/23 10:13:55;;;;;;;6.23;5.63;;;;;;;;;;5011012;28;20288;-56
2023/01/23 10:16:37;;;;;;;5.23;4.67;;;;;;;;;;5009955;28;20204;-58
2023/01/23 10:19:09;;;;;;;5.00;4.50;;;;;;;;;;5005710;28;20303;-58
2023/01/23 10:21:39;;;;;;;4.23;3.83;;;;;;;;;;5015959;28;20216;-57
2023/01/23 10:24:14;;;;;;;5.23;4.57;;;;;;;;;;5012732;28;20295;-56
2023/01/23 10:26:45;;;;;;;5.47;4.97;;;;;;;;;;5015987;28;20291;-56
2023/01/23 10:29:14;;;;;;;4.53;4.13;;;;;;;;;;5010132;28;20210;-57
2023/01/23 10:31:44;;;;;;;4.07;3.67;;;;;;;;;;5012357;28;20200;-56
2023/01/23 10:34:16;;;;;;;4.63;4.13;;;;;;;;;;5020623;28;20216;-53
2023/01/23 10:36:47;;;;;;;4.90;4.40;;;;;;;;;;5015989;28;20207;-58
2023/01/23 10:39:16;;;;;;;4.67;4.17;;;;;;;;;;5009168;28;20422;-56
2023/01/23 10:41:43;;;;;;;4.63;3.97;;;;;;;;;;5012968;28;20216;-57
2023/01/23 10:44:15;;;;;;;4.63;4.23;;;;;;;;;;5013965;28;20204;-57
2023/01/23 10:46:45;;;;;;;5.20;4.70;;;;;;;;;;5010672;28;20231;-57
2023/01/23 10:49:27;;;;;;;5.27;4.53;;;;;;;;;;5007769;28;20204;-56
2023/01/23 10:51:54;;;;;;;5.30;4.77;;;;;;;;;;5013499;28;20320;-56
2023/01/23 10:54:23;;;;;;;5.13;4.63;;;;;;;;;;5009040;28;20214;-58
2023/01/23 10:56:52;;;;;;;5.47;4.97;;;;;;;;;;5010551;28;20212;-57
2023/01/23 10:59:21;;;;;;;5.20;4.40;;;;;;;;;;5012594;28;20207;-57
2023/01/23 11:01:56;;;;;;;4.83;4.33;;;;;;;;;;5006717;28;20308;-56
2023/01/23 11:04:26;;;;;;;5.57;4.40;;;;;;;;;;5011554;28;20324;-58
2023/01/23 11:07:01;;;;;;;4.70;4.30;;;;;;;;;;5003695;28;20209;-56
2023/01/23 11:09:29;;;;;;;4.60;4.20;;;;;;;;;;5011529;28;20231;-56
2023/01/23 11:12:00;;;;;;;6.00;4.73;;;;;;;;;;5008373;28;20226;-56
2023/01/23 11:14:27;;;;;;;7.37;5.33;;;;;;;;;;5006897;28;20326;-57
2023/01/23 11:17:02;;;;;;;5.13;4.63;;;;;;;;;;5010964;28;20512;-56
2023/01/23 11:19:32;;;;;;;4.70;4.23;;;;;;;;;;5004690;28;20203;-58
2023/01/23 11:22:01;;;;;;;4.87;4.00;;;;;;;;;;5014805;28;20220;-56
2023/01/23 11:24:30;;;;;;;4.03;3.70;;;;;;;;;;5010020;28;20197;-55
2023/01/23 11:27:01;;;;;;;4.20;3.80;;;;;;;;;;5014531;28;20196;-57
2023/01/23 11:29:29;;;;;;;4.90;4.40;;;;;;;;;;5013189;28;20216;-59
2023/01/23 11:31:59;;;;;;;4.50;4.10;;;;;;;;;;5009882;28;20204;-57
2023/01/23 11:34:28;;;;;;;4.33;3.93;;;;;;;;;;5008110;28;20204;-58
2023/01/23 11:37:00;;;;;;;3.83;3.53;;;;;;;;;;5018145;28;20212;-59
2023/01/23 11:39:38;;;;;;;4.50;4.10;;;;;;;;;;5014301;28;20204;-58
2023/01/23 11:42:05;;;;;;;4.63;4.13;;;;;;;;;;5015062;28;20247;-58
2023/01/23 11:44:33;;;;;;;4.37;3.97;;;;;;;;;;5015473;28;20197;-55
2023/01/23 11:47:12;;;;;;;4.40;4.00;;;;;;;;;;5014822;28;20345;-57
2023/01/23 11:49:52;;;;;;;3.90;3.60;;;;;;;;;;5015071;28;20201;-57
2023/01/23 11:52:26;;;;;;;4.47;4.07;;;;;;;;;;5008361;28;20201;-56
2023/01/23 11:55:02;;;;;;;4.73;4.07;;;;;;;;;;5015040;28;20204;-55
2023/01/23 11:57:34;;;;;;;5.23;4.73;;;;;;;;;;5015721;28;20208;-53
2023/01/23 12:00:06;;;;;;;4.03;3.63;;;;;;;;;;5011564;28;20209;-57
2023/01/23 12:02:53;;;;;;;5.60;4.70;;;;;;;;;;5014366;28;20224;-55
2023/01/23 12:05:27;;;;;;;6.53;4.57;;;;;;;;;;5021760;28;20211;-57
2023/01/23 12:08:02;;;;;;;5.17;4.63;;;;;;;;;;5019705;28;20208;-52
2023/01/23 12:10:33;;;;;;;9.50;5.20;;;;;;;;;;5014935;28;20239;-56
2023/01/23 12:13:06;;;;;;;4.57;3.70;;;;;;;;;;5013025;28;20209;-53
2023/01/23 12:15:39;;;;;;;7.43;4.63;;;;;;;;;;5016091;28;20219;-58
2023/01/23 12:18:12;;;;;;;3.53;3.23;;;;;;;;;;5012050;28;20220;-58
2023/01/23 12:20:45;;;;;;;7.17;4.93;;;;;;;;;;5011031;28;20210;-57
2023/01/23 12:23:33;;;;;;;4.83;4.10;;;;;;;;;;5013611;28;20240;-54
2023/01/23 12:26:07;;;;;;;4.60;3.90;;;;;;;;;;5008562;28;20219;-56
2023/01/23 12:28:48;;;;;;;4.63;4.00;;;;;;;;;;5014439;28;20212;-56
2023/01/23 12:31:20;;;;;;;6.23;4.73;;;;;;;;;;5008975;28;20208;-58
2023/01/23 12:33:56;;;;;;;12.90;7.70;;;;;;;;;;5013834;28;20200;-56
2023/01/23 12:36:30;;;;;;;11.27;6.27;;;;;;;;;;5010086;28;20203;-58
2023/01/23 12:39:03;;;;;;;9.00;5.70;;;;;;;;;;5018164;28;20646;-55
2023/01/23 12:41:35;;;;;;;7.63;4.93;;;;;;;;;;5009986;28;20200;-58
2023/01/23 12:44:05;;;;;;;10.77;5.80;;;;;;;;;;5010684;28;20210;-57
2023/01/23 12:46:35;;;;;;;12.27;5.80;;;;;;;;;;5014127;28;20200;-56
2023/01/23 12:49:10;;;;;;;7.30;4.60;;;;;;;;;;5011287;28;20199;-55
2023/01/23 12:51:39;;;;;;;5.80;4.77;;;;;;;;;;5012719;28;20199;-55
2023/01/23 12:54:10;;;;;;;4.10;3.70;;;;;;;;;;5010464;28;20200;-57
2023/01/23 12:56:40;;;;;;;4.10;3.70;;;;;;;;;;5012044;28;20196;-57
2023/01/23 12:59:12;;;;;;;7.60;4.97;;;;;;;;;;5009037;28;20205;-57
2023/01/23 13:01:51;;;;;;;4.30;3.90;;;;;;;;;;5010719;28;20236;-56
2023/01/23 13:04:29;;;;;;;7.17;4.33;;;;;;;;;;5012015;28;20286;-57
2023/01/23 13:07:11;;;;;;;4.20;3.80;;;;;;;;;;5015251;28;20235;-54
2023/01/23 13:09:44;;;;;;;5.10;4.27;;;;;;;;;;5009582;28;20236;-53
2023/01/23 13:12:19;;;;;;;4.50;3.67;;;;;;;;;;5012720;28;20204;-56
2023/01/23 13:14:46;;;;;;;4.73;4.23;;;;;;;;;;5012534;28;20200;-54
2023/01/23 13:17:30;;;;;;;4.33;3.93;;;;;;;;;;5010138;28;20200;-53
2023/01/23 13:23:18;;;;;;;4.23;3.80;;;;;;;;;;5010593;28;20398;-60
2023/01/23 13:25:46;;;;;;;3.90;3.60;;;;;;;;;;5011997;28;20204;-57
2023/01/23 13:28:34;;;;;;;3.97;3.57;;;;;;;;;;5014228;28;20208;-55
2023/01/23 13:31:01;;;;;;;4.37;3.97;;;;;;;;;;5015105;28;20240;-56
2023/01/23 13:33:53;;;;;;;3.83;3.53;;;;;;;;;;5011962;28;20212;-56
2023/01/23 13:36:30;;;;;;;4.03;3.63;;;;;;;;;;5008286;28;20271;-55
2023/01/23 13:39:01;;;;;;;3.97;3.67;;;;;;;;;;5014642;28;20307;-55
2023/01/23 13:41:29;;;;;;;4.37;3.97;;;;;;;;;;5017037;28;20221;-57
2023/01/23 13:44:03;;;;;;;4.23;3.83;;;;;;;;;;5010930;28;20235;-55
2023/01/23 13:46:34;;;;;;;4.63;4.23;;;;;;;;;;5014970;28;20212;-53
2023/01/23 13:51:54;;;;;;;4.53;4.13;;;;;;;;;;5009246;28;20441;-57
2023/01/23 13:57:11;;;;;;;4.33;3.97;;;;;;;;;;5005364;28;20563;-54
2023/01/23 13:59:43;;;;;;;4.67;4.27;;;;;;;;;;5010822;28;20203;-53
2023/01/23 14:05:12;;;;;;;4.30;3.90;;;;;;;;;;5006223;28;20235;-52
2023/01/23 14:07:49;;;;;;;4.40;4.00;;;;;;;;;;5008836;28;20208;-52
2023/01/23 14:10:21;;;;;;;4.07;3.77;;;;;;;;;;5013577;28;20264;-56
2023/01/23 14:12:48;;;;;;;3.93;3.63;;;;;;;;;;5013939;28;20204;-57
2023/01/23 14:18:14;;;;;;;5.07;4.53;;;;;;;;;;5012120;28;20218;-57
2023/01/23 14:20:41;;;;;;;7.63;6.43;;;;;;;;;;5013618;28;20201;-54
2023/01/23 14:23:16;;;;;;;5.47;4.93;;;;;;;;;;5012527;28;20503;-55
2023/01/23 14:25:44;;;;;;;7.23;6.43;;;;;;;;;;5008520;28;20203;-52
2023/01/23 14:28:15;;;;;;;6.70;5.33;;;;;;;;;;5013334;28;20196;-56
2023/01/23 14:30:52;;;;;;;5.40;4.90;;;;;;;;;;5007321;28;20204;-55
2023/01/23 14:33:19;;;;;;;5.07;4.40;;;;;;;;;;5010801;28;20218;-55
2023/01/23 14:35:47;;;;;;;4.63;4.23;;;;;;;;;;5013200;28;20204;-56
2023/01/23 14:38:18;;;;;;;5.27;4.37;;;;;;;;;;5011687;28;20330;-53
2023/01/23 14:40:46;;;;;;;4.80;4.40;;;;;;;;;;5019302;28;20201;-56
2023/01/23 14:43:18;;;;;;;4.60;4.20;;;;;;;;;;5004444;28;20234;-58
2023/01/23 14:45:48;;;;;;;8.40;4.37;;;;;;;;;;5011301;28;20271;-54
2023/01/23 14:48:17;;;;;;;7.53;6.67;;;;;;;;;;5005420;28;20355;-57
2023/01/23 14:50:44;;;;;;;6.80;6.10;;;;;;;;;;5004609;28;20548;-57
2023/01/23 14:53:13;;;;;;;5.60;5.10;;;;;;;;;;5009803;28;20204;-56
2023/01/23 14:55:41;;;;;;;6.70;6.00;;;;;;;;;;5011333;28;20200;-58
2023/01/23 14:58:12;;;;;;;7.17;6.33;;;;;;;;;;5006911;28;20205;-56
2023/01/23 15:00:41;;;;;;;11.50;9.53;;;;;;;;;;5010916;28;20204;-58
2023/01/23 15:03:12;;;;;;;11.17;8.20;;;;;;;;;;5007783;28;20216;-57
2023/01/23 15:05:40;;;;;;;7.07;6.37;;;;;;;;;;5013346;28;20208;-58
2023/01/23 15:08:19;;;;;;;6.83;6.13;;;;;;;;;;5009521;28;20239;-56
2023/01/23 15:10:48;;;;;;;7.27;6.57;;;;;;;;;;5014107;28;20251;-57
2023/01/23 15:13:21;;;;;;;8.37;6.80;;;;;;;;;;5010207;28;20250;-56
2023/01/23 15:15:52;;;;;;;13.13;10.67;;;;;;;;;;5018664;28;20203;-58
2023/01/23 15:18:22;;;;;;;8.60;7.80;;;;;;;;;;5014321;28;20208;-58
2023/01/23 15:20:53;;;;;;;7.47;6.77;;;;;;;;;;5016716;28;20207;-56